Time;durP1;ratioP1;P1;durP2;ratioP2;P2;SDS_P1;SDS_P2;PMS_P1;PMS_P2;Temp;Humidity;BMP_temperature;BMP_pressure;BME280_temperature;BME280_humidity;BME280_pressure;Samples;Min_cycle;Max_cycle;Signal;HPM_P1;HPM_P2
2021/01/26 00:02:11;;;;;;;18.87;5.10;;;;;;;;;;5043086;28;20191;-74
2021/01/26 00:04:36;;;;;;;11.30;4.87;;;;;;;;;;5036418;28;20189;-73
2021/01/26 00:07:02;;;;;;;15.37;4.90;;;;;;;;;;5040522;28;20239;-72
2021/01/26 00:09:27;;;;;;;12.97;4.10;;;;;;;;;;5039478;28;20186;-72
2021/01/26 00:11:52;;;;;;;13.27;4.37;;;;;;;;;;5059528;28;20545;-71
2021/01/26 00:14:18;;;;;;;18.63;4.63;;;;;;;;;;5046164;28;20243;-71
2021/01/26 00:16:43;;;;;;;19.00;4.37;;;;;;;;;;5036467;28;20209;-71
2021/01/26 00:19:08;;;;;;;12.77;3.40;;;;;;;;;;5041483;28;20181;-70
2021/01/26 00:21:34;;;;;;;13.70;3.80;;;;;;;;;;5036173;28;20182;-72
2021/01/26 00:23:59;;;;;;;12.50;3.37;;;;;;;;;;5042904;28;20637;-70
2021/01/26 00:26:24;;;;;;;9.70;2.80;;;;;;;;;;5037274;28;20197;-70
2021/01/26 00:28:49;;;;;;;11.47;2.73;;;;;;;;;;5046611;28;20185;-70
2021/01/26 00:31:15;;;;;;;11.73;2.83;;;;;;;;;;5037031;28;20197;-70
2021/01/26 00:33:40;;;;;;;10.07;2.53;;;;;;;;;;5037303;28;20217;-70
2021/01/26 00:36:06;;;;;;;13.93;2.53;;;;;;;;;;5037758;28;20961;-70
2021/01/26 00:38:31;;;;;;;20.30;2.97;;;;;;;;;;5053478;28;20221;-70
2021/01/26 00:40:56;;;;;;;16.30;2.43;;;;;;;;;;5043763;28;20248;-71
2021/01/26 00:43:22;;;;;;;11.23;2.23;;;;;;;;;;5060222;28;20187;-71
2021/01/26 00:45:47;;;;;;;9.20;2.07;;;;;;;;;;5063618;28;20856;-70
2021/01/26 00:48:15;;;;;;;10.13;1.50;;;;;;;;;;5039814;28;20192;-70
2021/01/26 00:50:40;;;;;;;12.20;1.97;;;;;;;;;;5047838;28;20191;-70
2021/01/26 00:53:05;;;;;;;8.87;1.53;;;;;;;;;;5040288;28;20656;-71
2021/01/26 00:55:31;;;;;;;6.93;1.50;;;;;;;;;;5050100;28;20196;-72
2021/01/26 00:57:56;;;;;;;14.07;2.57;;;;;;;;;;5040079;28;20288;-72
2021/01/26 01:00:29;;;;;;;10.93;1.60;;;;;;;;;;5048757;28;20627;-72
2021/01/26 01:02:54;;;;;;;12.93;2.10;;;;;;;;;;5039262;28;20391;-71
2021/01/26 01:05:20;;;;;;;17.53;2.80;;;;;;;;;;5047551;28;20205;-72
2021/01/26 01:07:46;;;;;;;14.87;2.07;;;;;;;;;;5041129;28;20712;-72
2021/01/26 01:10:15;;;;;;;20.10;2.00;;;;;;;;;;5048007;28;20204;-72
2021/01/26 01:12:40;;;;;;;12.23;2.00;;;;;;;;;;5041402;28;20287;-72
2021/01/26 01:15:07;;;;;;;10.33;1.50;;;;;;;;;;5059487;28;20280;-72
2021/01/26 01:17:32;;;;;;;13.73;1.70;;;;;;;;;;5046855;28;20197;-72
2021/01/26 01:19:57;;;;;;;13.03;1.60;;;;;;;;;;5040246;28;20200;-71
2021/01/26 01:22:23;;;;;;;16.00;1.73;;;;;;;;;;5046273;28;20210;-71
2021/01/26 01:24:48;;;;;;;12.47;1.30;;;;;;;;;;5040154;28;20224;-71
2021/01/26 01:27:13;;;;;;;15.00;1.80;;;;;;;;;;5057025;28;20181;-69
2021/01/26 01:29:39;;;;;;;13.53;1.73;;;;;;;;;;5040664;28;20197;-69
2021/01/26 01:32:04;;;;;;;15.67;1.60;;;;;;;;;;5048656;28;20545;-69
2021/01/26 01:34:30;;;;;;;10.83;1.30;;;;;;;;;;5045117;28;20566;-71
2021/01/26 01:36:55;;;;;;;14.40;1.57;;;;;;;;;;5041755;28;20316;-71
2021/01/26 01:39:20;;;;;;;12.57;2.43;;;;;;;;;;5055788;28;20280;-71
2021/01/26 01:41:46;;;;;;;14.87;1.60;;;;;;;;;;5045619;28;20656;-71
2021/01/26 01:44:11;;;;;;;9.87;1.50;;;;;;;;;;5046238;28;20193;-71
2021/01/26 01:46:41;;;;;;;9.53;1.50;;;;;;;;;;5031064;28;20211;-71
2021/01/26 01:49:10;;;;;;;8.00;1.10;;;;;;;;;;5046926;28;20200;-71
2021/01/26 01:51:39;;;;;;;14.53;1.10;;;;;;;;;;5039667;28;20193;-71
2021/01/26 01:54:12;;;;;;;11.70;1.40;;;;;;;;;;5047294;28;20201;-70
2021/01/26 01:56:53;;;;;;;9.83;1.30;;;;;;;;;;5035063;28;20218;-71
2021/01/26 01:59:23;;;;;;;6.10;0.90;;;;;;;;;;5046483;28;20284;-71
2021/01/26 02:01:49;;;;;;;7.80;1.10;;;;;;;;;;5054480;28;20259;-71
2021/01/26 02:04:18;;;;;;;12.97;1.63;;;;;;;;;;5046150;28;20185;-71
2021/01/26 02:06:46;;;;;;;18.20;3.13;;;;;;;;;;5039043;28;20567;-70
2021/01/26 02:09:16;;;;;;;11.13;1.30;;;;;;;;;;5046685;28;20220;-71
2021/01/26 02:11:44;;;;;;;8.90;2.13;;;;;;;;;;5039450;28;20213;-71
2021/01/26 02:14:10;;;;;;;15.63;1.70;;;;;;;;;;5047209;28;20246;-70
2021/01/26 02:17:03;;;;;;;8.87;1.63;;;;;;;;;;5037978;28;20292;-70
2021/01/26 02:19:49;;;;;;;21.70;1.77;;;;;;;;;;5049988;28;20188;-70
2021/01/26 02:22:52;;;;;;;9.40;1.20;;;;;;;;;;5040263;28;20247;-71
2021/01/26 02:25:51;;;;;;;13.90;1.63;;;;;;;;;;5047928;28;20182;-70
2021/01/26 02:28:39;;;;;;;17.20;1.73;;;;;;;;;;5035323;28;20635;-71
2021/01/26 02:31:26;;;;;;;6.27;1.10;;;;;;;;;;5052751;28;20196;-71
2021/01/26 02:34:34;;;;;;;11.70;1.00;;;;;;;;;;5037743;28;20188;-71
2021/01/26 02:37:05;;;;;;;12.50;1.17;;;;;;;;;;5036936;28;20564;-71
2021/01/26 02:39:38;;;;;;;15.33;1.67;;;;;;;;;;5046037;28;20626;-71
2021/01/26 02:42:09;;;;;;;7.17;0.97;;;;;;;;;;5041813;28;20181;-73
2021/01/26 02:44:41;;;;;;;12.00;1.43;;;;;;;;;;5047143;28;20209;-73
2021/01/26 02:47:34;;;;;;;12.60;1.40;;;;;;;;;;5060929;28;20228;-73
2021/01/26 02:50:19;;;;;;;12.77;1.10;;;;;;;;;;5047882;28;20189;-72
2021/01/26 02:52:54;;;;;;;8.30;0.90;;;;;;;;;;5036384;28;20196;-74
2021/01/26 02:55:38;;;;;;;12.53;1.47;;;;;;;;;;5047014;28;20196;-73
2021/01/26 02:58:18;;;;;;;10.77;1.30;;;;;;;;;;5036610;28;20201;-72
2021/01/26 03:00:47;;;;;;;8.27;0.93;;;;;;;;;;5048491;28;20185;-71
2021/01/26 03:03:20;;;;;;;15.57;1.67;;;;;;;;;;5037579;28;20552;-71
2021/01/26 03:05:55;;;;;;;8.17;1.00;;;;;;;;;;5046905;28;20209;-72
2021/01/26 03:08:31;;;;;;;16.13;1.90;;;;;;;;;;5050114;28;20598;-71
2021/01/26 03:11:13;;;;;;;8.97;1.13;;;;;;;;;;5041769;28;20204;-71
2021/01/26 03:13:44;;;;;;;6.33;1.00;;;;;;;;;;5042954;28;20550;-71
2021/01/26 03:16:15;;;;;;;6.40;1.00;;;;;;;;;;5044782;28;20284;-71
2021/01/26 03:18:47;;;;;;;9.43;0.80;;;;;;;;;;5040083;28;20213;-71
2021/01/26 03:21:16;;;;;;;7.77;1.17;;;;;;;;;;5035936;28;20266;-71
2021/01/26 03:23:52;;;;;;;11.73;0.83;;;;;;;;;;5048661;28;20536;-71
2021/01/26 03:26:21;;;;;;;6.27;0.57;;;;;;;;;;5035528;28;20193;-71
2021/01/26 03:28:50;;;;;;;9.40;1.10;;;;;;;;;;5041049;28;20208;-71
2021/01/26 03:31:18;;;;;;;6.73;0.80;;;;;;;;;;5036810;28;20193;-71
2021/01/26 03:33:48;;;;;;;5.13;0.80;;;;;;;;;;5056682;28;20189;-71
2021/01/26 03:36:14;;;;;;;12.73;1.37;;;;;;;;;;5035711;28;20225;-71
2021/01/26 03:38:40;;;;;;;8.00;1.10;;;;;;;;;;5037209;28;20268;-71
2021/01/26 03:41:06;;;;;;;7.97;1.23;;;;;;;;;;5034738;28;20189;-71
2021/01/26 03:43:32;;;;;;;6.57;0.80;;;;;;;;;;5042734;28;20550;-71
2021/01/26 03:46:25;;;;;;;5.87;0.70;;;;;;;;;;5035424;28;20182;-71
2021/01/26 03:49:06;;;;;;;6.67;0.90;;;;;;;;;;5047494;28;20599;-71
2021/01/26 03:51:51;;;;;;;8.50;1.20;;;;;;;;;;5039824;28;20185;-71
2021/01/26 03:54:29;;;;;;;8.27;0.70;;;;;;;;;;5046211;28;20201;-71
2021/01/26 03:57:19;;;;;;;9.77;1.03;;;;;;;;;;5034264;28;20216;-71
2021/01/26 04:00:08;;;;;;;11.77;1.70;;;;;;;;;;5042959;28;20272;-71
2021/01/26 04:02:58;;;;;;;7.90;0.83;;;;;;;;;;5037102;28;20213;-71
2021/01/26 04:05:38;;;;;;;5.83;0.93;;;;;;;;;;5047110;28;20232;-71
2021/01/26 04:08:18;;;;;;;5.57;0.67;;;;;;;;;;5038349;28;20185;-71
2021/01/26 04:11:08;;;;;;;6.53;0.93;;;;;;;;;;5045857;28;20181;-71
2021/01/26 04:13:47;;;;;;;8.70;0.87;;;;;;;;;;5037123;28;20284;-71
2021/01/26 04:16:16;;;;;;;12.03;1.10;;;;;;;;;;5053400;28;20173;-71
2021/01/26 04:18:42;;;;;;;8.03;1.20;;;;;;;;;;5042768;28;20747;-72
2021/01/26 04:21:10;;;;;;;9.90;1.00;;;;;;;;;;5052611;28;20189;-72
2021/01/26 04:23:38;;;;;;;7.63;0.90;;;;;;;;;;5041682;28;20266;-72
2021/01/26 04:26:09;;;;;;;8.07;0.90;;;;;;;;;;5060155;28;20190;-72
2021/01/26 04:28:47;;;;;;;6.90;1.00;;;;;;;;;;5042900;28;20189;-72
2021/01/26 04:31:14;;;;;;;9.30;0.77;;;;;;;;;;5043547;28;20260;-70
2021/01/26 04:33:40;;;;;;;4.23;0.83;;;;;;;;;;5038407;28;20197;-69
2021/01/26 04:36:07;;;;;;;5.27;0.93;;;;;;;;;;5050950;28;20232;-70
2021/01/26 04:38:32;;;;;;;9.27;1.17;;;;;;;;;;5037785;28;20214;-70
2021/01/26 04:41:04;;;;;;;7.53;1.00;;;;;;;;;;5051319;28;20238;-70
2021/01/26 04:43:41;;;;;;;3.03;0.90;;;;;;;;;;5034531;28;20193;-71
2021/01/26 04:46:32;;;;;;;4.43;0.80;;;;;;;;;;5054877;28;20276;-72
2021/01/26 04:49:14;;;;;;;6.50;1.53;;;;;;;;;;5039877;28;20197;-70
2021/01/26 04:51:51;;;;;;;2.93;1.07;;;;;;;;;;5049977;28;20271;-70
2021/01/26 04:54:44;;;;;;;8.07;1.10;;;;;;;;;;5040553;28;20580;-70
2021/01/26 04:57:29;;;;;;;8.13;1.30;;;;;;;;;;5041264;28;20228;-70
2021/01/26 05:00:07;;;;;;;4.63;1.00;;;;;;;;;;5038047;28;20228;-71
2021/01/26 05:03:03;;;;;;;10.10;1.00;;;;;;;;;;5046852;28;20218;-71
2021/01/26 05:05:34;;;;;;;4.73;0.80;;;;;;;;;;5042183;28;20564;-71
2021/01/26 05:08:04;;;;;;;6.47;0.80;;;;;;;;;;5047275;28;20224;-71
2021/01/26 05:10:41;;;;;;;5.73;1.03;;;;;;;;;;5035696;28;20527;-71
2021/01/26 05:13:22;;;;;;;8.20;2.00;;;;;;;;;;5047371;28;20272;-71
2021/01/26 05:15:54;;;;;;;7.50;2.70;;;;;;;;;;5056806;28;20251;-71
2021/01/26 05:18:29;;;;;;;7.93;3.10;;;;;;;;;;5045654;28;20619;-71
2021/01/26 05:21:01;;;;;;;8.13;3.27;;;;;;;;;;5040866;28;20648;-71
2021/01/26 05:23:33;;;;;;;10.27;3.57;;;;;;;;;;5048414;28;20181;-71
2021/01/26 05:25:58;;;;;;;8.77;3.83;;;;;;;;;;5043031;28;20201;-71
2021/01/26 05:28:24;;;;;;;8.27;3.60;;;;;;;;;;5047936;28;20212;-71
2021/01/26 05:31:05;;;;;;;9.50;4.13;;;;;;;;;;5040852;28;20205;-71
2021/01/26 05:33:30;;;;;;;11.60;4.00;;;;;;;;;;5056619;28;20600;-71
2021/01/26 05:36:01;;;;;;;11.57;4.47;;;;;;;;;;5035378;28;20261;-71
2021/01/26 05:38:26;;;;;;;14.13;4.80;;;;;;;;;;5048465;28;20209;-72
2021/01/26 05:40:56;;;;;;;10.17;4.23;;;;;;;;;;5047660;28;20193;-71
2021/01/26 05:43:29;;;;;;;14.50;4.60;;;;;;;;;;5039329;28;20203;-70
2021/01/26 05:45:58;;;;;;;13.83;5.40;;;;;;;;;;5049119;28;20676;-71
2021/01/26 05:48:25;;;;;;;14.00;5.20;;;;;;;;;;5038187;28;20186;-71
2021/01/26 05:50:52;;;;;;;14.07;5.60;;;;;;;;;;5047874;28;20541;-70
2021/01/26 05:53:31;;;;;;;13.37;5.93;;;;;;;;;;5040093;28;20193;-70
2021/01/26 05:56:13;;;;;;;13.83;5.83;;;;;;;;;;5045985;28;22487;-70
2021/01/26 05:58:41;;;;;;;11.77;5.83;;;;;;;;;;5042731;28;20211;-70
2021/01/26 06:01:22;;;;;;;15.57;5.88;;;;;;;;;;4403817;28;10001855;-71
2021/01/26 06:04:14;;;;;;;14.23;6.17;;;;;;;;;;5040611;28;20402;-71
2021/01/26 06:06:54;;;;;;;12.10;5.83;;;;;;;;;;5041595;28;20732;-71
2021/01/26 06:09:38;;;;;;;11.17;5.27;;;;;;;;;;5035524;28;20273;-70
2021/01/26 06:12:10;;;;;;;13.10;5.97;;;;;;;;;;5041912;28;20229;-69
2021/01/26 06:14:35;;;;;;;12.70;6.33;;;;;;;;;;5032173;28;20594;-70
2021/01/26 06:17:08;;;;;;;11.53;5.97;;;;;;;;;;5042838;28;20231;-71
2021/01/26 06:19:33;;;;;;;14.03;6.57;;;;;;;;;;5032491;28;20197;-71
2021/01/26 06:21:59;;;;;;;18.23;8.10;;;;;;;;;;5043761;28;20513;-72
2021/01/26 06:24:27;;;;;;;16.87;8.63;;;;;;;;;;5031023;28;20197;-71
2021/01/26 06:27:30;;;;;;;18.77;9.60;;;;;;;;;;5041909;28;20470;-72
2021/01/26 06:30:19;;;;;;;19.43;8.73;;;;;;;;;;5034468;28;20203;-71
2021/01/26 06:33:09;;;;;;;18.67;8.70;;;;;;;;;;5044883;28;20225;-71
2021/01/26 06:35:52;;;;;;;19.10;9.77;;;;;;;;;;5032292;28;20194;-71
2021/01/26 06:38:40;;;;;;;22.77;10.83;;;;;;;;;;5037325;28;20209;-71
2021/01/26 06:41:07;;;;;;;25.33;10.17;;;;;;;;;;5034852;28;20283;-71
2021/01/26 06:43:53;;;;;;;23.07;10.87;;;;;;;;;;5043426;28;20196;-71
2021/01/26 06:46:36;;;;;;;27.33;11.47;;;;;;;;;;5034648;28;20598;-71
2021/01/26 06:49:15;;;;;;;23.40;11.20;;;;;;;;;;5042907;28;20876;-71
2021/01/26 06:51:49;;;;;;;26.83;12.27;;;;;;;;;;5060383;28;20553;-71
2021/01/26 06:54:20;;;;;;;27.57;12.70;;;;;;;;;;5043557;28;20218;-71
2021/01/26 06:56:51;;;;;;;25.53;12.33;;;;;;;;;;5036193;28;20288;-71
2021/01/26 06:59:46;;;;;;;23.40;11.23;;;;;;;;;;5040350;28;20197;-71
2021/01/26 07:02:29;;;;;;;24.63;12.07;;;;;;;;;;5035100;28;20594;-71
2021/01/26 07:05:18;;;;;;;26.70;11.60;;;;;;;;;;5039834;28;20201;-72
2021/01/26 07:07:53;;;;;;;24.93;12.87;;;;;;;;;;5040323;28;20955;-72
2021/01/26 07:10:33;;;;;;;28.10;12.40;;;;;;;;;;5047829;28;20272;-72
2021/01/26 07:13:18;;;;;;;22.57;11.30;;;;;;;;;;5042774;28;20190;-72
2021/01/26 07:16:22;;;;;;;19.37;10.87;;;;;;;;;;5040107;28;20196;-71
2021/01/26 07:18:57;;;;;;;22.07;10.83;;;;;;;;;;5042543;28;20620;-71
2021/01/26 07:21:50;;;;;;;19.60;10.10;;;;;;;;;;5034433;28;20827;-71
2021/01/26 07:24:31;;;;;;;19.90;11.20;;;;;;;;;;4696274;28;10000180;-71
2021/01/26 07:27:14;;;;;;;22.90;12.27;;;;;;;;;;5032734;28;20189;-71
2021/01/26 07:29:58;;;;;;;22.93;11.63;;;;;;;;;;5042183;28;20180;-71
2021/01/26 07:32:55;;;;;;;24.57;11.13;;;;;;;;;;5030926;28;20197;-71
2021/01/26 07:35:50;;;;;;;25.03;11.47;;;;;;;;;;5039214;28;20413;-71
2021/01/26 07:38:32;;;;;;;25.23;12.23;;;;;;;;;;5027901;28;20229;-71
2021/01/26 07:41:14;;;;;;;25.03;11.47;;;;;;;;;;5043519;28;20224;-71
2021/01/26 07:43:52;;;;;;;25.23;12.63;;;;;;;;;;5031495;28;20196;-71
2021/01/26 07:46:21;;;;;;;24.83;12.23;;;;;;;;;;5037623;28;20200;-71
2021/01/26 07:49:09;;;;;;;23.83;11.87;;;;;;;;;;5034013;28;20190;-72
2021/01/26 07:51:39;;;;;;;24.90;11.60;;;;;;;;;;5047481;28;20202;-71
2021/01/26 07:54:24;;;;;;;25.37;12.37;;;;;;;;;;5036864;28;20220;-71
2021/01/26 07:56:49;;;;;;;24.57;12.07;;;;;;;;;;5039582;28;20504;-72
2021/01/26 07:59:21;;;;;;;29.87;13.63;;;;;;;;;;5034171;28;20641;-71
2021/01/26 08:01:51;;;;;;;24.33;11.77;;;;;;;;;;5043020;28;20215;-71
2021/01/26 08:04:17;;;;;;;21.53;11.37;;;;;;;;;;5036889;28;20267;-71
2021/01/26 08:06:47;;;;;;;21.33;10.63;;;;;;;;;;5042478;28;20224;-72
2021/01/26 08:09:44;;;;;;;24.23;11.30;;;;;;;;;;5037083;28;20196;-72
2021/01/26 08:12:15;;;;;;;25.03;11.70;;;;;;;;;;5029085;28;20229;-72
2021/01/26 08:14:45;;;;;;;25.93;13.27;;;;;;;;;;5037413;28;20185;-69
2021/01/26 08:17:14;;;;;;;23.03;11.57;;;;;;;;;;5045155;28;20201;-70
2021/01/26 08:19:50;;;;;;;24.23;11.83;;;;;;;;;;5035840;28;20192;-70
2021/01/26 08:22:55;;;;;;;25.47;12.37;;;;;;;;;;5043435;28;20193;-70
2021/01/26 08:25:29;;;;;;;29.53;14.13;;;;;;;;;;5028665;28;20560;-70
2021/01/26 08:28:04;;;;;;;24.93;12.40;;;;;;;;;;5041905;28;20181;-70
2021/01/26 08:30:29;;;;;;;23.27;11.40;;;;;;;;;;5035639;28;20231;-70
2021/01/26 08:33:11;;;;;;;22.83;12.00;;;;;;;;;;5044792;28;20705;-70
2021/01/26 08:36:03;;;;;;;20.67;10.97;;;;;;;;;;5037493;28;20178;-71
2021/01/26 08:38:50;;;;;;;25.03;12.20;;;;;;;;;;5044526;28;20301;-70
2021/01/26 08:41:55;;;;;;;18.47;10.23;;;;;;;;;;5037900;28;20656;-71
2021/01/26 08:44:20;;;;;;;18.70;10.37;;;;;;;;;;5044993;28;20232;-71
2021/01/26 08:46:48;;;;;;;21.50;10.53;;;;;;;;;;5035448;28;20221;-71
2021/01/26 08:49:33;;;;;;;20.30;10.13;;;;;;;;;;5042393;28;20625;-71
2021/01/26 08:52:20;;;;;;;18.43;10.13;;;;;;;;;;5037495;28;20193;-71
2021/01/26 08:54:48;;;;;;;20.10;9.60;;;;;;;;;;5039577;28;20193;-72
2021/01/26 08:57:29;;;;;;;18.73;9.63;;;;;;;;;;5030326;28;20217;-72
2021/01/26 08:59:56;;;;;;;18.47;9.73;;;;;;;;;;5038628;28;20212;-70
2021/01/26 09:02:42;;;;;;;18.10;9.60;;;;;;;;;;5040661;28;20190;-71
2021/01/26 09:05:09;;;;;;;15.97;8.40;;;;;;;;;;5061832;28;20228;-71
2021/01/26 09:07:55;;;;;;;17.53;9.17;;;;;;;;;;5033016;28;20200;-69
2021/01/26 09:10:25;;;;;;;17.67;8.60;;;;;;;;;;5048614;28;20193;-69
2021/01/26 09:12:59;;;;;;;23.20;9.67;;;;;;;;;;5037007;28;20181;-70
2021/01/26 09:15:25;;;;;;;19.17;9.17;;;;;;;;;;5047209;28;20610;-70
2021/01/26 09:17:58;;;;;;;19.70;9.20;;;;;;;;;;5040194;28;20676;-71
2021/01/26 09:20:25;;;;;;;18.00;8.20;;;;;;;;;;5048490;28;20236;-71
2021/01/26 09:22:59;;;;;;;19.30;9.83;;;;;;;;;;5038898;28;20205;-71
2021/01/26 09:25:30;;;;;;;18.47;8.57;;;;;;;;;;5042428;28;20204;-71
2021/01/26 09:28:08;;;;;;;18.70;9.00;;;;;;;;;;5036053;28;20667;-71
2021/01/26 09:30:36;;;;;;;15.63;8.53;;;;;;;;;;5041888;28;20235;-71
2021/01/26 09:33:23;;;;;;;18.73;8.57;;;;;;;;;;5041083;28;20302;-71
2021/01/26 09:35:52;;;;;;;17.47;8.30;;;;;;;;;;5044007;28;20212;-71
2021/01/26 09:38:44;;;;;;;16.93;8.33;;;;;;;;;;5042391;28;20236;-71
2021/01/26 09:41:19;;;;;;;16.13;7.63;;;;;;;;;;5042913;28;20194;-71
2021/01/26 09:43:50;;;;;;;13.03;6.63;;;;;;;;;;5029800;28;20283;-70
2021/01/26 09:46:27;;;;;;;17.77;7.90;;;;;;;;;;5046500;28;20193;-71
2021/01/26 09:48:56;;;;;;;13.57;6.40;;;;;;;;;;5038075;28;20197;-70
2021/01/26 09:51:29;;;;;;;12.43;6.50;;;;;;;;;;5043794;28;20241;-71
2021/01/26 09:54:04;;;;;;;16.43;6.63;;;;;;;;;;5038092;28;20189;-71
2021/01/26 09:56:38;;;;;;;13.43;6.20;;;;;;;;;;5045911;28;20189;-71
2021/01/26 09:59:05;;;;;;;10.77;6.03;;;;;;;;;;5044612;28;20189;-71
2021/01/26 10:01:33;;;;;;;12.77;6.10;;;;;;;;;;5044624;28;20212;-72
2021/01/26 10:04:01;;;;;;;11.80;6.23;;;;;;;;;;5047042;28;20204;-71
2021/01/26 10:06:27;;;;;;;13.50;6.03;;;;;;;;;;5036978;28;20205;-71
2021/01/26 10:08:53;;;;;;;13.03;5.57;;;;;;;;;;5046284;28;20986;-71
2021/01/26 10:11:27;;;;;;;11.17;5.60;;;;;;;;;;5036706;28;20233;-71
2021/01/26 10:14:17;;;;;;;11.70;6.40;;;;;;;;;;5050658;28;20573;-71
2021/01/26 10:16:48;;;;;;;10.33;6.20;;;;;;;;;;5036751;28;20529;-71
2021/01/26 10:19:23;;;;;;;9.40;5.33;;;;;;;;;;5047439;28;20208;-71
2021/01/26 10:21:49;;;;;;;11.73;4.97;;;;;;;;;;5026987;28;20197;-71
2021/01/26 10:24:28;;;;;;;8.43;4.50;;;;;;;;;;5045463;28;20197;-71
2021/01/26 10:27:11;;;;;;;11.43;5.33;;;;;;;;;;5040248;28;20204;-71
2021/01/26 10:29:41;;;;;;;13.50;6.23;;;;;;;;;;5043251;28;20191;-71
2021/01/26 10:32:08;;;;;;;7.93;5.37;;;;;;;;;;5034780;28;20518;-71
2021/01/26 10:34:38;;;;;;;10.00;5.70;;;;;;;;;;5044214;28;20259;-71
2021/01/26 10:37:22;;;;;;;10.07;5.53;;;;;;;;;;5037595;28;20225;-71
2021/01/26 10:40:04;;;;;;;9.33;4.87;;;;;;;;;;5043269;28;20197;-71
2021/01/26 10:42:30;;;;;;;7.53;3.87;;;;;;;;;;5038302;28;20244;-71
2021/01/26 10:44:56;;;;;;;10.30;4.03;;;;;;;;;;5042845;28;20656;-71
2021/01/26 10:47:30;;;;;;;8.73;4.40;;;;;;;;;;5032897;28;20251;-71
2021/01/26 10:50:05;;;;;;;6.50;3.33;;;;;;;;;;5047259;28;20662;-71
2021/01/26 10:52:39;;;;;;;7.77;3.40;;;;;;;;;;5039824;28;20197;-71
2021/01/26 10:55:05;;;;;;;7.27;3.33;;;;;;;;;;5048362;28;20187;-71
2021/01/26 10:57:30;;;;;;;8.10;3.73;;;;;;;;;;5042804;28;20213;-71
2021/01/26 10:59:56;;;;;;;8.50;4.20;;;;;;;;;;5048800;28;20216;-71
2021/01/26 11:02:21;;;;;;;15.63;4.93;;;;;;;;;;5048276;28;20189;-71
2021/01/26 11:04:46;;;;;;;8.97;4.47;;;;;;;;;;5037910;28;20560;-71
2021/01/26 11:07:12;;;;;;;10.13;4.83;;;;;;;;;;5054167;28;20211;-71
2021/01/26 11:09:37;;;;;;;9.97;5.00;;;;;;;;;;5034628;28;20196;-71
2021/01/26 11:12:03;;;;;;;7.37;4.77;;;;;;;;;;4352407;28;10000772;-71
2021/01/26 11:14:29;;;;;;;10.13;4.73;;;;;;;;;;5030537;28;20190;-71
2021/01/26 11:16:54;;;;;;;9.77;5.10;;;;;;;;;;5037444;28;20552;-71
2021/01/26 11:19:21;;;;;;;10.27;5.00;;;;;;;;;;5032411;28;20197;-71
2021/01/26 11:21:46;;;;;;;7.67;4.93;;;;;;;;;;5047861;28;20576;-71
2021/01/26 11:24:12;;;;;;;6.83;4.37;;;;;;;;;;5030191;28;20193;-71
2021/01/26 11:26:37;;;;;;;6.97;3.83;;;;;;;;;;5038120;28;20755;-71
2021/01/26 11:29:03;;;;;;;7.57;4.60;;;;;;;;;;5030355;28;20322;-71
2021/01/26 11:31:28;;;;;;;10.77;5.33;;;;;;;;;;5041662;28;20548;-71
2021/01/26 11:33:53;;;;;;;7.63;4.33;;;;;;;;;;5035839;28;20190;-71
2021/01/26 11:36:19;;;;;;;9.10;4.00;;;;;;;;;;5034212;28;20320;-71
2021/01/26 11:38:44;;;;;;;7.73;4.00;;;;;;;;;;5040834;28;20213;-71
2021/01/26 11:41:10;;;;;;;8.63;4.10;;;;;;;;;;5031976;28;20197;-71
2021/01/26 11:43:35;;;;;;;9.07;4.23;;;;;;;;;;5041465;28;20185;-71
2021/01/26 11:46:03;;;;;;;10.83;4.87;;;;;;;;;;5035158;28;20195;-71
2021/01/26 11:48:29;;;;;;;10.77;4.47;;;;;;;;;;5039874;28;20235;-71
2021/01/26 11:50:55;;;;;;;8.90;4.10;;;;;;;;;;5031830;28;20189;-71
2021/01/26 11:53:21;;;;;;;5.63;3.53;;;;;;;;;;5040407;28;20200;-71
2021/01/26 11:55:47;;;;;;;5.90;4.00;;;;;;;;;;5030169;28;20292;-71
2021/01/26 11:58:12;;;;;;;9.87;4.20;;;;;;;;;;5039301;28;20276;-71
2021/01/26 12:00:39;;;;;;;7.87;4.43;;;;;;;;;;5032203;28;20470;-71
2021/01/26 12:03:05;;;;;;;7.93;3.77;;;;;;;;;;5042264;28;20188;-71
2021/01/26 12:05:34;;;;;;;9.43;3.87;;;;;;;;;;5046087;28;20700;-71
2021/01/26 12:08:00;;;;;;;6.37;3.47;;;;;;;;;;5038434;28;20204;-71
2021/01/26 12:10:26;;;;;;;6.23;3.50;;;;;;;;;;5051073;28;20632;-71
2021/01/26 12:12:52;;;;;;;6.07;3.13;;;;;;;;;;5034527;28;20189;-71
2021/01/26 12:15:25;;;;;;;5.23;3.17;;;;;;;;;;5045844;28;20804;-71
2021/01/26 12:17:50;;;;;;;3.67;2.20;;;;;;;;;;5034771;28;20209;-71
2021/01/26 12:20:16;;;;;;;6.47;2.83;;;;;;;;;;5049187;28;20189;-71
2021/01/26 12:22:41;;;;;;;7.47;2.90;;;;;;;;;;5034436;28;20194;-71
2021/01/26 12:25:09;;;;;;;7.97;3.57;;;;;;;;;;5041073;28;20212;-71
2021/01/26 12:27:34;;;;;;;6.40;2.70;;;;;;;;;;5031497;28;20197;-70
2021/01/26 12:30:00;;;;;;;5.70;2.43;;;;;;;;;;5044897;28;20198;-70
2021/01/26 12:32:26;;;;;;;3.07;2.17;;;;;;;;;;5032930;28;20663;-70
2021/01/26 12:34:51;;;;;;;4.70;2.40;;;;;;;;;;5046021;28;20193;-70
2021/01/26 12:37:19;;;;;;;8.43;2.27;;;;;;;;;;5038588;28;20236;-70
2021/01/26 12:39:44;;;;;;;4.33;2.40;;;;;;;;;;5051369;28;20227;-70
2021/01/26 12:42:10;;;;;;;3.97;2.20;;;;;;;;;;5047568;28;20228;-70
2021/01/26 12:44:35;;;;;;;4.87;2.00;;;;;;;;;;5036742;28;20188;-71
2021/01/26 12:47:00;;;;;;;5.20;1.80;;;;;;;;;;5047829;28;20256;-71
2021/01/26 12:49:26;;;;;;;7.93;2.40;;;;;;;;;;5037238;28;20553;-71
2021/01/26 12:51:51;;;;;;;5.57;2.50;;;;;;;;;;5046669;28;20186;-70
2021/01/26 12:54:17;;;;;;;4.77;1.67;;;;;;;;;;5046646;28;20288;-70
2021/01/26 12:56:42;;;;;;;8.80;3.83;;;;;;;;;;5058918;28;20185;-71
2021/01/26 12:59:08;;;;;;;7.40;3.87;;;;;;;;;;5040172;28;20193;-70
2021/01/26 13:01:34;;;;;;;2.97;1.00;;;;;;;;;;5043097;28;20193;-71
2021/01/26 13:04:00;;;;;;;3.77;0.67;;;;;;;;;;5037880;28;20185;-71
2021/01/26 13:06:25;;;;;;;3.03;1.00;;;;;;;;;;5043567;28;20270;-70
2021/01/26 13:08:52;;;;;;;3.60;1.10;;;;;;;;;;5040862;28;20177;-70
2021/01/26 13:11:17;;;;;;;4.07;1.00;;;;;;;;;;5046644;28;20637;-70
2021/01/26 13:13:44;;;;;;;4.37;1.20;;;;;;;;;;5042505;28;20200;-70
2021/01/26 13:16:10;;;;;;;5.50;1.40;;;;;;;;;;5052167;28;20244;-70
2021/01/26 13:18:36;;;;;;;4.17;1.70;;;;;;;;;;5046825;28;20241;-70
2021/01/26 13:21:02;;;;;;;5.80;2.17;;;;;;;;;;5035761;28;20552;-70
2021/01/26 13:23:27;;;;;;;3.23;1.70;;;;;;;;;;5051284;28;20192;-70
2021/01/26 13:25:52;;;;;;;4.33;1.10;;;;;;;;;;5037209;28;21015;-70
2021/01/26 13:28:18;;;;;;;2.87;1.33;;;;;;;;;;5045973;28;20944;-70
2021/01/26 13:30:44;;;;;;;8.07;1.40;;;;;;;;;;5038646;28;20903;-70
2021/01/26 13:33:10;;;;;;;14.20;1.80;;;;;;;;;;5053554;28;20204;-70
2021/01/26 13:35:35;;;;;;;6.43;1.60;;;;;;;;;;5037682;28;20190;-70
2021/01/26 13:38:02;;;;;;;3.80;1.37;;;;;;;;;;5048464;28;20217;-70
2021/01/26 13:40:28;;;;;;;2.90;1.40;;;;;;;;;;5037821;28;20448;-70
2021/01/26 13:42:54;;;;;;;6.23;1.30;;;;;;;;;;5050314;28;20196;-70
2021/01/26 13:45:23;;;;;;;6.67;1.43;;;;;;;;;;5043356;28;20182;-70
2021/01/26 13:47:48;;;;;;;4.87;1.07;;;;;;;;;;5039621;28;20200;-70
2021/01/26 13:50:16;;;;;;;6.50;1.63;;;;;;;;;;5044102;28;20189;-70
2021/01/26 13:52:42;;;;;;;6.70;1.93;;;;;;;;;;5039380;28;20189;-70
2021/01/26 13:55:08;;;;;;;6.13;1.70;;;;;;;;;;5043810;28;20190;-70
2021/01/26 13:57:34;;;;;;;6.30;1.50;;;;;;;;;;5035931;28;20729;-70
2021/01/26 13:59:59;;;;;;;5.83;1.23;;;;;;;;;;5048936;28;20190;-70
2021/01/26 14:02:25;;;;;;;8.90;1.37;;;;;;;;;;5039173;28;20197;-70
2021/01/26 14:04:50;;;;;;;6.53;1.40;;;;;;;;;;5045615;28;20675;-70
2021/01/26 14:07:15;;;;;;;6.03;1.10;;;;;;;;;;5039072;28;20213;-70
2021/01/26 14:09:41;;;;;;;4.93;1.77;;;;;;;;;;5046328;28;20283;-71
2021/01/26 14:12:07;;;;;;;7.63;2.20;;;;;;;;;;5036498;28;20209;-70
2021/01/26 14:14:32;;;;;;;8.67;2.60;;;;;;;;;;5045675;28;20189;-70
2021/01/26 14:16:57;;;;;;;7.13;3.27;;;;;;;;;;5042420;28;20213;-70
2021/01/26 14:19:24;;;;;;;16.53;6.70;;;;;;;;;;5036502;28;20193;-70
2021/01/26 14:21:50;;;;;;;8.53;2.03;;;;;;;;;;5045168;28;20204;-70
2021/01/26 14:24:15;;;;;;;11.87;1.90;;;;;;;;;;5034747;28;21962;-70
2021/01/26 14:26:41;;;;;;;9.37;1.00;;;;;;;;;;5046043;28;20268;-70
2021/01/26 14:29:08;;;;;;;17.90;8.07;;;;;;;;;;5036769;28;20193;-70
2021/01/26 14:31:33;;;;;;;8.30;4.17;;;;;;;;;;5045639;28;20190;-70
2021/01/26 14:34:00;;;;;;;15.57;3.83;;;;;;;;;;5039224;28;20549;-70
2021/01/26 14:36:26;;;;;;;8.17;2.30;;;;;;;;;;5044827;28;20256;-71
2021/01/26 14:38:51;;;;;;;10.57;2.20;;;;;;;;;;5035280;28;20749;-70
2021/01/26 14:41:17;;;;;;;7.07;1.33;;;;;;;;;;5046576;28;20303;-70
2021/01/26 14:43:42;;;;;;;15.30;4.77;;;;;;;;;;5049758;28;20185;-71
2021/01/26 14:46:07;;;;;;;5.70;2.13;;;;;;;;;;5046332;28;20212;-70
2021/01/26 14:48:32;;;;;;;8.33;1.50;;;;;;;;;;5045892;28;20247;-71
2021/01/26 14:50:58;;;;;;;6.47;1.60;;;;;;;;;;5034904;28;20223;-70
2021/01/26 14:53:23;;;;;;;7.87;1.80;;;;;;;;;;5046163;28;20312;-70
2021/01/26 14:55:49;;;;;;;7.03;1.97;;;;;;;;;;5037469;28;20265;-70
2021/01/26 14:58:14;;;;;;;4.33;1.27;;;;;;;;;;5044574;28;20216;-70
2021/01/26 15:00:39;;;;;;;7.73;2.10;;;;;;;;;;5035345;28;20223;-70
2021/01/26 15:03:05;;;;;;;12.83;1.40;;;;;;;;;;5044565;28;20189;-70